createdAt,value
2018-02-09T00:01:59.063Z,123.80
2018-02-09T00:04:25.502Z,180.03
2018-02-09T00:06:52.141Z,130.60
2018-02-09T00:09:18.514Z,119.30
2018-02-09T00:11:44.840Z,116.33
2018-02-09T00:14:12.373Z,112.90
2018-02-09T00:16:38.790Z,107.83
2018-02-09T00:19:05.104Z,91.87
2018-02-09T00:21:31.472Z,95.67
2018-02-09T00:23:58.877Z,93.00
2018-02-09T00:26:25.212Z,83.70
2018-02-09T00:28:51.461Z,87.57
2018-02-09T00:31:17.676Z,89.87
2018-02-09T00:33:44.052Z,93.93
2018-02-09T00:36:11.047Z,91.27
2018-02-09T00:38:37.464Z,92.70
2018-02-09T00:41:03.703Z,76.23
2018-02-09T00:43:29.969Z,88.30
2018-02-09T00:45:57.053Z,86.97
2018-02-09T00:48:23.339Z,76.90
2018-02-09T00:50:50.556Z,83.83
2018-02-09T00:53:16.888Z,84.33
2018-02-09T00:55:43.223Z,90.23
2018-02-09T00:58:09.525Z,84.83
2018-02-09T01:00:35.930Z,87.87
2018-02-09T01:03:03.128Z,94.07
2018-02-09T01:05:29.371Z,93.80
2018-02-09T01:07:55.627Z,100.50
2018-02-09T01:10:22.551Z,84.17
2018-02-09T01:12:49.648Z,82.77
2018-02-09T01:15:16.142Z,87.33
2018-02-09T01:17:43.098Z,81.57
2018-02-09T01:20:16.955Z,89.47
2018-02-09T01:22:43.307Z,89.67
2018-02-09T01:25:10.318Z,86.10
2018-02-09T01:27:36.577Z,90.57
2018-02-09T01:30:03.618Z,85.97
2018-02-09T01:32:29.881Z,97.03
2018-02-09T01:34:56.259Z,88.60
2018-02-09T01:37:22.436Z,85.70
2018-02-09T01:39:48.659Z,84.30
2018-02-09T01:42:15.558Z,82.60
2018-02-09T01:44:41.798Z,68.03
2018-02-09T01:47:08.749Z,93.60
2018-02-09T01:49:35.658Z,80.60
2018-02-09T01:52:02.035Z,77.17
2018-02-09T01:54:28.966Z,80.87
2018-02-09T01:56:55.958Z,91.30
2018-02-09T01:59:22.166Z,74.13
2018-02-09T02:01:48.494Z,76.20
2018-02-09T02:04:14.810Z,81.63
2018-02-09T02:06:41.142Z,82.20
2018-02-09T02:09:07.366Z,78.77
2018-02-09T02:11:33.717Z,72.77
2018-02-09T02:14:00.005Z,72.67
2018-02-09T02:16:26.990Z,72.30
2018-02-09T02:18:53.211Z,72.83
2018-02-09T02:21:19.436Z,69.67
2018-02-09T02:23:45.753Z,78.33
2018-02-09T02:26:12.903Z,71.07
2018-02-09T02:28:39.279Z,71.67
2018-02-09T02:31:20.590Z,66.90
2018-02-09T02:33:48.022Z,68.63
2018-02-09T02:36:14.343Z,70.73
2018-02-09T02:38:40.609Z,79.27
2018-02-09T02:41:07.575Z,77.20
2018-02-09T02:43:33.772Z,64.13
2018-02-09T02:46:00.940Z,83.30
2018-02-09T02:48:27.316Z,70.57
2018-02-09T02:50:53.753Z,76.10
2018-02-09T02:53:20.699Z,73.27
2018-02-09T02:55:47.012Z,74.97
2018-02-09T02:58:13.350Z,74.90
2018-02-09T03:00:39.592Z,68.73
2018-02-09T03:03:05.781Z,68.67
2018-02-09T03:05:31.969Z,73.67
2018-02-09T03:07:58.945Z,70.57
2018-02-09T03:10:25.252Z,74.17
2018-02-09T03:12:51.539Z,75.30
2018-02-09T03:15:18.038Z,63.03
2018-02-09T03:17:44.352Z,73.87
2018-02-09T03:20:10.765Z,58.77
2018-02-09T03:22:37.771Z,70.67
2018-02-09T03:25:04.012Z,77.20
2018-02-09T03:27:30.985Z,73.83
2018-02-09T03:29:57.307Z,58.00
2018-02-09T03:32:24.185Z,64.50
2018-02-09T03:34:50.423Z,54.47
2018-02-09T03:37:16.664Z,79.13
2018-02-09T03:39:42.816Z,63.73
2018-02-09T03:42:09.835Z,66.40
2018-02-09T03:44:36.253Z,64.40
2018-02-09T03:47:02.458Z,60.97
2018-02-09T03:49:28.804Z,66.67
2018-02-09T03:51:55.026Z,62.77
2018-02-09T03:54:21.329Z,65.77
2018-02-09T03:56:47.526Z,61.40
2018-02-09T03:59:14.643Z,62.03
2018-02-09T04:01:40.858Z,60.30
2018-02-09T04:04:07.196Z,54.13
2018-02-09T04:06:33.405Z,58.30
2018-02-09T04:08:59.677Z,57.87
2018-02-09T04:11:26.737Z,52.73
2018-02-09T04:13:53.798Z,61.90
2018-02-09T04:16:19.988Z,61.37
2018-02-09T04:18:46.255Z,53.17
2018-02-09T04:21:12.512Z,55.43
2018-02-09T04:23:38.680Z,57.00
2018-02-09T04:26:05.638Z,60.63
2018-02-09T04:28:31.899Z,59.80
2018-02-09T04:30:58.183Z,59.07
2018-02-09T04:33:25.126Z,63.20
2018-02-09T04:35:53.188Z,47.57
2018-02-09T04:38:20.243Z,61.60
2018-02-09T04:40:47.233Z,59.30
2018-02-09T04:43:13.569Z,58.20
2018-02-09T04:45:39.859Z,67.37
2018-02-09T04:48:06.234Z,49.70
2018-02-09T04:50:32.580Z,55.13
2018-02-09T04:52:59.606Z,67.10
2018-02-09T04:55:25.869Z,65.97
2018-02-09T04:57:52.953Z,57.03
2018-02-09T05:00:19.207Z,53.00
2018-02-09T05:02:45.438Z,58.30
2018-02-09T05:05:13.513Z,55.17
2018-02-09T05:07:39.769Z,53.40
2018-02-09T05:10:06.891Z,52.53
2018-02-09T05:12:33.218Z,48.97
2018-02-09T05:14:59.475Z,59.50
2018-02-09T05:17:26.578Z,55.70
2018-02-09T05:19:52.806Z,69.63
2018-02-09T05:22:19.143Z,54.77
2018-02-09T05:24:45.363Z,52.60
2018-02-09T05:27:11.793Z,52.43
2018-02-09T05:29:37.933Z,60.00
2018-02-09T05:32:04.239Z,48.30
2018-02-09T05:34:30.448Z,59.30
2018-02-09T05:36:57.007Z,62.43
2018-02-09T05:39:23.229Z,62.07
2018-02-09T05:41:49.542Z,54.30
2018-02-09T05:44:15.841Z,60.60
2018-02-09T05:46:42.035Z,57.80
2018-02-09T05:49:08.277Z,50.90
2018-02-09T05:51:50.151Z,58.40
2018-02-09T05:54:16.442Z,52.93
2018-02-09T05:56:42.682Z,56.73
2018-02-09T05:59:08.894Z,54.17
2018-02-09T06:01:35.218Z,59.13
2018-02-09T06:04:01.382Z,55.77
2018-02-09T06:06:27.635Z,50.67
2018-02-09T06:08:54.576Z,58.87
2018-02-09T06:11:21.562Z,54.67
2018-02-09T06:13:47.742Z,46.67
2018-02-09T06:16:14.777Z,56.87
2018-02-09T06:18:41.669Z,53.23
2018-02-09T06:21:08.011Z,52.10
2018-02-09T06:23:34.384Z,53.90
2018-02-09T06:26:01.398Z,62.17
2018-02-09T06:28:27.750Z,52.70
2018-02-09T06:30:54.258Z,59.33
2018-02-09T06:33:20.628Z,56.70
2018-02-09T06:35:47.647Z,43.73
2018-02-09T06:38:14.003Z,50.67
2018-02-09T06:40:40.954Z,52.07
2018-02-09T06:43:07.934Z,51.20
2018-02-09T06:45:34.152Z,44.13
2018-02-09T06:48:00.517Z,52.73
2018-02-09T06:50:26.760Z,52.93
2018-02-09T06:52:53.821Z,50.23
2018-02-09T06:55:20.930Z,47.47
2018-02-09T06:57:51.050Z,57.33
2018-02-09T07:00:17.371Z,60.60
2018-02-09T07:02:43.672Z,53.50
2018-02-09T07:05:09.857Z,58.17
2018-02-09T07:07:36.837Z,46.10
2018-02-09T07:10:03.089Z,57.13
2018-02-09T07:12:29.322Z,53.27
2018-02-09T07:14:55.633Z,57.33
2018-02-09T07:17:22.047Z,55.27
2018-02-09T07:19:49.104Z,55.20
2018-02-09T07:22:15.408Z,62.23
2018-02-09T07:24:41.629Z,54.00
2018-02-09T07:27:07.834Z,58.67
2018-02-09T07:29:34.963Z,69.67
2018-02-09T07:32:01.245Z,53.03
2018-02-09T07:34:27.436Z,54.47
2018-02-09T07:36:54.535Z,57.23
2018-02-09T07:39:20.785Z,59.47
2018-02-09T07:41:54.106Z,69.77
2018-02-09T07:44:21.107Z,58.57
2018-02-09T07:46:47.373Z,57.67
2018-02-09T07:49:14.487Z,53.67
2018-02-09T07:51:40.777Z,56.70
2018-02-09T07:54:07.046Z,59.20
2018-02-09T07:56:33.334Z,53.63
2018-02-09T07:58:59.610Z,65.07
2018-02-09T08:01:25.865Z,79.70
2018-02-09T08:03:52.263Z,60.17
2018-02-09T08:06:18.748Z,68.87
2018-02-09T08:08:44.960Z,65.37
2018-02-09T08:11:12.103Z,66.37
2018-02-09T08:13:39.314Z,54.07
2018-02-09T08:16:05.643Z,67.00
2018-02-09T08:18:31.800Z,64.33
2018-02-09T08:20:58.927Z,69.60
2018-02-09T08:23:25.185Z,57.80
2018-02-09T08:25:52.195Z,62.20
2018-02-09T08:28:18.618Z,61.30
2018-02-09T08:30:44.947Z,66.63
2018-02-09T08:33:11.194Z,55.03
2018-02-09T08:35:37.516Z,62.80
2018-02-09T08:38:03.836Z,61.13
2018-02-09T08:40:30.381Z,62.53
2018-02-09T08:42:56.995Z,64.60
2018-02-09T08:45:23.328Z,70.80
2018-02-09T08:47:49.544Z,65.00
2018-02-09T08:50:15.774Z,70.83
2018-02-09T08:52:42.049Z,66.87
2018-02-09T08:55:09.155Z,74.27
2018-02-09T08:57:35.381Z,62.33
2018-02-09T09:00:01.780Z,63.00
2018-02-09T09:02:28.035Z,74.17
2018-02-09T09:04:54.312Z,60.70
2018-02-09T09:07:21.274Z,68.67
2018-02-09T09:09:47.617Z,70.17
2018-02-09T09:12:13.944Z,75.57
2018-02-09T09:14:41.470Z,72.23
2018-02-09T09:17:07.860Z,64.47
2018-02-09T09:19:34.249Z,84.27
2018-02-09T09:22:00.524Z,102.27
2018-02-09T09:24:26.858Z,92.87
2018-02-09T09:26:53.095Z,103.53
2018-02-09T09:29:19.420Z,97.87
2018-02-09T09:31:46.459Z,110.50
2018-02-09T09:34:12.833Z,103.80
2018-02-09T09:36:39.081Z,106.00
2018-02-09T09:39:05.387Z,104.03
2018-02-09T09:41:31.853Z,110.03
2018-02-09T09:43:58.355Z,97.30
2018-02-09T09:46:24.741Z,102.93
2018-02-09T09:48:58.183Z,99.27
2018-02-09T09:51:24.526Z,94.10
2018-02-09T09:53:50.795Z,106.40
2018-02-09T09:56:18.587Z,96.73
2018-02-09T09:58:44.916Z,96.50
2018-02-09T10:04:05.139Z,93.83
2018-02-09T10:06:31.662Z,86.10
2018-02-09T10:08:58.070Z,89.67
2018-02-09T10:11:26.097Z,91.33
2018-02-09T10:13:52.335Z,91.93
2018-02-09T10:16:18.629Z,83.40
2018-02-09T10:18:44.949Z,92.07
2018-02-09T10:21:11.206Z,86.67
2018-02-09T10:23:37.548Z,91.27
2018-02-09T10:26:03.876Z,87.57
2018-02-09T10:28:30.268Z,91.53
2018-02-09T10:30:56.631Z,90.40
2018-02-09T10:33:22.890Z,86.60
2018-02-09T10:35:50.005Z,89.33
2018-02-09T10:38:16.279Z,92.10
2018-02-09T10:40:43.307Z,95.50
2018-02-09T10:43:10.250Z,85.93
2018-02-09T10:45:37.328Z,98.93
2018-02-09T10:48:03.530Z,99.63
2018-02-09T10:50:30.677Z,87.07
2018-02-09T10:52:57.663Z,75.97
2018-02-09T10:55:24.087Z,73.60
2018-02-09T10:57:50.261Z,75.47
2018-02-09T11:00:18.415Z,72.63
2018-02-09T11:02:44.964Z,69.30
2018-02-09T11:05:12.807Z,70.77
2018-02-09T11:07:39.142Z,73.20
2018-02-09T11:10:11.717Z,71.17
2018-02-09T11:12:42.073Z,73.00
2018-02-09T11:15:09.120Z,81.63
2018-02-09T11:17:36.255Z,79.03
2018-02-09T11:20:02.656Z,76.93
2018-02-09T11:22:28.991Z,67.53
2018-02-09T11:24:55.423Z,73.63
2018-02-09T11:27:21.801Z,73.93
2018-02-09T11:29:48.159Z,63.90
2018-02-09T11:32:14.666Z,72.50
2018-02-09T11:34:40.969Z,74.13
2018-02-09T11:37:07.497Z,76.30
2018-02-09T11:39:33.745Z,77.50
2018-02-09T11:42:00.822Z,76.20
2018-02-09T11:44:27.215Z,65.60
2018-02-09T11:46:54.363Z,71.93
2018-02-09T11:49:21.410Z,77.30
2018-02-09T11:51:48.437Z,79.90
2018-02-09T11:54:14.688Z,77.07
2018-02-09T11:56:41.702Z,78.00
2018-02-09T11:59:08.949Z,72.27
2018-02-09T12:01:36.930Z,77.27
2018-02-09T12:04:04.001Z,76.60
2018-02-09T12:06:30.896Z,74.90
2018-02-09T12:08:57.138Z,74.27
2018-02-09T12:11:24.063Z,79.27
2018-02-09T12:13:50.389Z,81.03
2018-02-09T12:16:16.556Z,80.43
2018-02-09T12:18:43.788Z,73.90
2018-02-09T12:21:10.109Z,81.90
2018-02-09T12:23:37.916Z,83.97
2018-02-09T12:26:04.208Z,83.90
2018-02-09T12:28:32.022Z,85.07
2018-02-09T12:30:58.375Z,78.17
2018-02-09T12:33:24.610Z,75.57
2018-02-09T12:35:50.893Z,76.80
2018-02-09T12:38:17.165Z,89.40
2018-02-09T12:40:43.487Z,83.37
2018-02-09T12:43:09.767Z,77.47
2018-02-09T12:45:36.042Z,74.53
2018-02-09T12:48:02.369Z,73.50
2018-02-09T12:50:28.565Z,71.33
2018-02-09T12:52:54.846Z,80.33
2018-02-09T12:55:21.751Z,78.73
2018-02-09T12:57:47.967Z,76.50
2018-02-09T13:00:14.116Z,83.83
2018-02-09T13:02:40.361Z,66.30
2018-02-09T13:05:06.525Z,74.53
2018-02-09T13:07:33.563Z,76.33
2018-02-09T13:10:00.490Z,73.97
2018-02-09T13:12:39.756Z,82.70
2018-02-09T13:15:06.092Z,80.33
2018-02-09T13:17:32.268Z,81.03
2018-02-09T13:19:59.206Z,73.90
2018-02-09T13:22:37.944Z,87.57
2018-02-09T13:25:04.887Z,69.37
2018-02-09T13:27:32.104Z,76.97
2018-02-09T13:29:58.377Z,76.47
2018-02-09T13:32:37.722Z,84.73
2018-02-09T13:35:04.029Z,85.87
2018-02-09T13:37:33.828Z,78.30
2018-02-09T13:40:01.669Z,84.60
2018-02-09T13:42:28.044Z,80.63
2018-02-09T13:44:55.082Z,75.60
2018-02-09T13:47:22.100Z,82.87
2018-02-09T13:49:48.366Z,79.53
2018-02-09T13:52:15.358Z,73.07
2018-02-09T13:54:41.689Z,74.00
2018-02-09T13:57:08.020Z,78.30
2018-02-09T13:59:34.288Z,72.67
2018-02-09T14:02:01.397Z,78.17
2018-02-09T14:04:27.790Z,78.77
2018-02-09T14:06:54.077Z,75.53
2018-02-09T14:09:20.631Z,77.27
2018-02-09T14:11:46.923Z,85.37
2018-02-09T14:14:13.407Z,84.30
2018-02-09T14:16:39.716Z,81.90
2018-02-09T14:19:06.834Z,79.43
2018-02-09T14:21:33.012Z,95.90
2018-02-09T14:23:59.577Z,90.67
2018-02-09T14:26:25.991Z,84.17
2018-02-09T14:28:52.247Z,80.67
2018-02-09T14:31:18.532Z,71.00
2018-02-09T14:33:44.781Z,79.53
2018-02-09T14:36:11.125Z,68.87
2018-02-09T14:38:37.860Z,83.90
2018-02-09T14:41:04.293Z,82.90
2018-02-09T14:43:30.632Z,81.90
2018-02-09T14:45:57.013Z,85.97
2018-02-09T14:48:23.662Z,79.40
2018-02-09T14:50:49.959Z,73.03
2018-02-09T14:53:17.131Z,83.77
2018-02-09T14:55:43.371Z,85.73
2018-02-09T14:58:09.597Z,71.70
2018-02-09T15:00:36.008Z,81.60
2018-02-09T15:03:02.443Z,75.40
2018-02-09T15:05:29.069Z,76.20
2018-02-09T15:07:55.468Z,79.17
2018-02-09T15:10:21.920Z,70.17
2018-02-09T15:12:49.182Z,75.93
2018-02-09T15:15:15.415Z,92.60
2018-02-09T15:17:41.733Z,79.93
2018-02-09T15:20:08.833Z,83.43
2018-02-09T15:22:35.227Z,80.90
2018-02-09T15:25:01.600Z,76.20
2018-02-09T15:27:27.926Z,70.50
2018-02-09T15:29:54.303Z,70.57
2018-02-09T15:32:21.306Z,74.67
2018-02-09T15:34:48.241Z,78.40
2018-02-09T15:37:14.540Z,68.07
2018-02-09T15:39:41.721Z,70.47
2018-02-09T15:42:08.012Z,67.30
2018-02-09T15:44:34.289Z,75.90
2018-02-09T15:47:02.088Z,67.73
2018-02-09T15:49:28.344Z,79.27
2018-02-09T15:51:54.635Z,67.17
2018-02-09T15:54:21.694Z,72.70
2018-02-09T15:56:47.950Z,68.97
2018-02-09T15:59:14.413Z,69.07
2018-02-09T16:01:40.704Z,74.10
2018-02-09T16:04:07.057Z,71.93
2018-02-09T16:06:33.442Z,69.40
2018-02-09T16:08:59.724Z,74.67
2018-02-09T16:11:25.955Z,70.70
2018-02-09T16:13:52.194Z,67.97
2018-02-09T16:16:18.486Z,74.23
2018-02-09T16:18:44.766Z,97.30
2018-02-09T16:21:11.876Z,74.53
2018-02-09T16:23:38.298Z,69.63
2018-02-09T16:26:05.077Z,70.70
2018-02-09T16:28:32.114Z,69.60
2018-02-09T16:30:58.538Z,64.00
2018-02-09T16:33:25.688Z,69.03
2018-02-09T16:35:51.945Z,62.87
2018-02-09T16:38:18.916Z,79.40
2018-02-09T16:40:45.243Z,123.90
2018-02-09T16:43:11.901Z,85.77
2018-02-09T16:45:38.284Z,74.03
2018-02-09T16:48:04.538Z,66.53
2018-02-09T16:50:30.846Z,64.97
2018-02-09T16:52:57.043Z,64.40
2018-02-09T16:55:24.126Z,70.10
2018-02-09T16:57:50.440Z,69.50
2018-02-09T17:00:16.727Z,83.27
2018-02-09T17:02:43.049Z,72.70
2018-02-09T17:05:09.292Z,69.77
2018-02-09T17:07:35.553Z,68.73
2018-02-09T17:10:01.980Z,71.93
2018-02-09T17:12:28.263Z,78.20
2018-02-09T17:14:54.560Z,70.33
2018-02-09T17:17:20.866Z,78.83
2018-02-09T17:19:47.212Z,64.80
2018-02-09T17:22:13.593Z,76.70
2018-02-09T17:24:39.921Z,78.70
2018-02-09T17:27:07.667Z,77.80
2018-02-09T17:29:34.017Z,75.17
2018-02-09T17:32:01.030Z,78.20
2018-02-09T17:34:27.326Z,71.73
2018-02-09T17:36:54.351Z,82.10
2018-02-09T17:39:21.284Z,71.27
2018-02-09T17:41:47.527Z,65.60
2018-02-09T17:44:14.483Z,83.07
2018-02-09T17:46:40.819Z,82.87
2018-02-09T17:49:07.292Z,72.87
2018-02-09T17:51:33.775Z,73.13
2018-02-09T17:53:59.992Z,73.27
2018-02-09T17:56:27.117Z,77.37
2018-02-09T17:58:53.509Z,84.33
2018-02-09T18:01:19.762Z,76.33
2018-02-09T18:03:46.128Z,79.53
2018-02-09T18:06:13.233Z,79.50
2018-02-09T18:08:39.665Z,79.83
2018-02-09T18:11:05.941Z,73.10
2018-02-09T18:13:32.325Z,84.23
2018-02-09T18:15:58.724Z,87.60
2018-02-09T18:18:25.048Z,79.03
2018-02-09T18:20:51.560Z,82.67
2018-02-09T18:23:17.952Z,92.77
2018-02-09T18:25:44.376Z,88.27
2018-02-09T18:28:10.944Z,88.27
2018-02-09T18:30:38.051Z,83.57
2018-02-09T18:33:04.388Z,81.30
2018-02-09T18:35:30.649Z,78.73
2018-02-09T18:37:57.759Z,86.50
2018-02-09T18:40:23.983Z,85.10
2018-02-09T18:42:51.351Z,82.30
2018-02-09T18:45:17.875Z,89.27
2018-02-09T18:47:44.274Z,89.40
2018-02-09T18:50:10.615Z,92.73
2018-02-09T18:52:37.683Z,96.70
2018-02-09T18:55:03.969Z,98.57
2018-02-09T18:57:30.230Z,86.27
2018-02-09T18:59:56.578Z,87.60
2018-02-09T19:02:23.077Z,80.80
2018-02-09T19:04:49.404Z,87.77
2018-02-09T19:07:15.846Z,82.73
2018-02-09T19:09:42.134Z,90.73
2018-02-09T19:12:08.421Z,83.87
2018-02-09T19:14:36.482Z,86.60
2018-02-09T19:17:02.880Z,88.53
2018-02-09T19:19:29.215Z,87.43
2018-02-09T19:21:55.677Z,97.73
2018-02-09T19:24:21.935Z,99.30
2018-02-09T19:26:49.216Z,88.10
2018-02-09T19:29:15.529Z,96.87
2018-02-09T19:31:42.584Z,104.37
2018-02-09T19:34:08.959Z,96.30
2018-02-09T19:36:35.158Z,94.53
2018-02-09T19:39:01.476Z,98.37
2018-02-09T19:41:27.831Z,112.20
2018-02-09T19:43:54.291Z,94.07
2018-02-09T19:46:21.414Z,100.53
2018-02-09T19:48:47.830Z,91.87
2018-02-09T19:51:14.303Z,91.30
2018-02-09T19:53:42.259Z,97.97
2018-02-09T19:56:11.314Z,99.00
2018-02-09T19:58:38.087Z,95.60
2018-02-09T20:01:04.573Z,167.70
2018-02-09T20:03:31.044Z,93.17
2018-02-09T20:05:57.397Z,99.60
2018-02-09T20:08:24.759Z,88.13
2018-02-09T20:10:52.900Z,90.40
2018-02-09T20:13:19.538Z,98.87
2018-02-09T20:15:45.808Z,89.30
2018-02-09T20:18:12.841Z,92.93
2018-02-09T20:20:40.423Z,91.40
2018-02-09T20:23:07.121Z,94.37
2018-02-09T20:25:33.395Z,84.50
2018-02-09T20:27:59.863Z,95.43
2018-02-09T20:30:26.159Z,93.60
2018-02-09T20:32:52.649Z,92.90
2018-02-09T20:35:19.039Z,79.33
2018-02-09T20:37:45.757Z,83.93
2018-02-09T20:40:12.744Z,91.33
2018-02-09T20:42:39.422Z,87.83
2018-02-09T20:45:08.847Z,83.27
2018-02-09T20:47:35.647Z,85.97
2018-02-09T20:50:02.665Z,84.20
2018-02-09T20:52:29.303Z,88.07
2018-02-09T20:54:55.676Z,83.73
2018-02-09T20:57:22.829Z,84.33
2018-02-09T20:59:50.353Z,100.20
2018-02-09T21:02:18.253Z,97.40
2018-02-09T21:04:44.735Z,87.03
2018-02-09T21:07:11.167Z,99.40
2018-02-09T21:09:37.678Z,106.43
2018-02-09T21:12:05.026Z,106.50
2018-02-09T21:14:31.312Z,101.40
2018-02-09T21:16:57.692Z,89.90
2018-02-09T21:19:24.223Z,95.47
2018-02-09T21:21:50.560Z,89.70
2018-02-09T21:24:16.901Z,97.13
2018-02-09T21:26:43.177Z,93.40
2018-02-09T21:29:09.502Z,96.43
2018-02-09T21:31:36.550Z,96.37
2018-02-09T21:34:03.688Z,96.67
2018-02-09T21:36:30.802Z,98.73
2018-02-09T21:38:57.174Z,101.80
2018-02-09T21:41:24.359Z,94.27
2018-02-09T21:43:50.686Z,109.53
2018-02-09T21:46:17.358Z,102.37
2018-02-09T21:48:43.638Z,101.23
2018-02-09T21:51:09.943Z,101.20
2018-02-09T21:53:37.115Z,109.40
2018-02-09T21:56:03.785Z,110.87
2018-02-09T21:58:30.218Z,115.83
2018-02-09T22:00:56.532Z,98.20
2018-02-09T22:03:23.641Z,85.80
2018-02-09T22:05:49.975Z,97.93
2018-02-09T22:08:16.267Z,95.00
2018-02-09T22:10:42.836Z,106.37
2018-02-09T22:13:09.295Z,101.33
2018-02-09T22:15:35.791Z,114.80
2018-02-09T22:18:02.873Z,105.17
2018-02-09T22:20:29.274Z,95.60
2018-02-09T22:22:56.525Z,99.00
2018-02-09T22:25:23.737Z,112.70
2018-02-09T22:27:50.249Z,100.57
2018-02-09T22:30:17.947Z,96.37
2018-02-09T22:32:44.315Z,100.37
2018-02-09T22:35:10.496Z,90.33
2018-02-09T22:37:36.743Z,109.70
2018-02-09T22:40:03.687Z,102.40
2018-02-09T22:42:31.038Z,97.00
2018-02-09T22:44:58.105Z,118.20
2018-02-09T22:47:24.615Z,110.40
2018-02-09T22:49:51.791Z,100.07
2018-02-09T22:52:18.924Z,98.47
2018-02-09T22:54:46.081Z,90.83
2018-02-09T22:57:12.319Z,99.90
2018-02-09T22:59:38.671Z,108.50
2018-02-09T23:02:05.084Z,102.57
2018-02-09T23:04:31.759Z,104.87
2018-02-09T23:06:59.349Z,105.67
2018-02-09T23:09:26.662Z,105.07
2018-02-09T23:11:53.096Z,102.97
2018-02-09T23:14:20.841Z,91.63
2018-02-09T23:16:47.286Z,101.27
2018-02-09T23:19:13.461Z,103.70
2018-02-09T23:21:40.483Z,108.23
2018-02-09T23:24:07.455Z,105.73
2018-02-09T23:26:34.059Z,102.40
2018-02-09T23:29:00.376Z,103.73
2018-02-09T23:31:26.658Z,103.77
2018-02-09T23:33:53.072Z,98.60
2018-02-09T23:36:20.011Z,105.00
2018-02-09T23:38:47.088Z,102.27
2018-02-09T23:41:13.404Z,94.20
2018-02-09T23:43:39.630Z,90.47
2018-02-09T23:46:05.961Z,82.73
2018-02-09T23:48:32.735Z,88.70
2018-02-09T23:50:59.077Z,106.37
2018-02-09T23:53:25.583Z,105.67
2018-02-09T23:55:51.938Z,93.83
2018-02-09T23:58:18.322Z,96.27
